sensor_id;sensor_type;location;lat;lon;timestamp;pressure;altitude;pressure_sealevel;temperature;humidity
21760;BME280;11041;50.854;20.580;2022-12-04T00:01:38;99546.53;;;0.06;97.49
21760;BME280;11041;50.854;20.580;2022-12-04T00:04:04;99551.47;;;0.09;97.37
21760;BME280;11041;50.854;20.580;2022-12-04T00:06:34;99560.03;;;0.25;97.50
21760;BME280;11041;50.854;20.580;2022-12-04T00:09:02;99501.06;;;-0.15;97.55
21760;BME280;11041;50.854;20.580;2022-12-04T00:11:31;99574.22;;;0.20;97.46
21760;BME280;11041;50.854;20.580;2022-12-04T00:13:59;99528.91;;;0.04;97.75
21760;BME280;11041;50.854;20.580;2022-12-04T00:16:28;99560.25;;;0.23;97.43
21760;BME280;11041;50.854;20.580;2022-12-04T00:18:55;99543.69;;;0.19;96.78
21760;BME280;11041;50.854;20.580;2022-12-04T00:21:23;99548.09;;;0.14;96.70
21760;BME280;11041;50.854;20.580;2022-12-04T00:23:52;99547.97;;;0.09;96.75
21760;BME280;11041;50.854;20.580;2022-12-04T00:26:25;99554.78;;;0.11;96.83
21760;BME280;11041;50.854;20.580;2022-12-04T00:28:53;99568.97;;;0.25;97.05
21760;BME280;11041;50.854;20.580;2022-12-04T00:31:25;99568.97;;;0.25;96.55
21760;BME280;11041;50.854;20.580;2022-12-04T00:33:52;99548.34;;;0.12;96.30
21760;BME280;11041;50.854;20.580;2022-12-04T00:36:22;99557.19;;;0.19;97.15
21760;BME280;11041;50.854;20.580;2022-12-04T00:38:50;99554.84;;;0.23;96.53
21760;BME280;11041;50.854;20.580;2022-12-04T00:41:21;99563.91;;;0.29;96.30
21760;BME280;11041;50.854;20.580;2022-12-04T00:43:48;99547.06;;;0.15;96.40
21760;BME280;11041;50.854;20.580;2022-12-04T00:46:16;99551.78;;;0.19;96.57
21760;BME280;11041;50.854;20.580;2022-12-04T00:48:43;99543.50;;;0.14;96.37
21760;BME280;11041;50.854;20.580;2022-12-04T00:51:14;99555.22;;;0.27;96.45
21760;BME280;11041;50.854;20.580;2022-12-04T00:53:42;99535.41;;;0.14;96.40
21760;BME280;11041;50.854;20.580;2022-12-04T00:56:15;99556.41;;;0.31;96.30
21760;BME280;11041;50.854;20.580;2022-12-04T00:58:42;99549.81;;;0.27;96.40
21760;BME280;11041;50.854;20.580;2022-12-04T01:01:16;99557.47;;;0.30;96.06
21760;BME280;11041;50.854;20.580;2022-12-04T01:03:43;99562.28;;;0.28;96.09
21760;BME280;11041;50.854;20.580;2022-12-04T01:06:30;99564.22;;;0.39;96.29
21760;BME280;11041;50.854;20.580;2022-12-04T01:08:59;99559.25;;;0.36;96.15
21760;BME280;11041;50.854;20.580;2022-12-04T01:11:28;99546.41;;;0.31;95.73
21760;BME280;11041;50.854;20.580;2022-12-04T01:13:56;99562.84;;;0.48;95.93
21760;BME280;11041;50.854;20.580;2022-12-04T01:16:33;99552.84;;;0.49;95.47
21760;BME280;11041;50.854;20.580;2022-12-04T01:19:02;99527.13;;;0.28;95.17
21760;BME280;11041;50.854;20.580;2022-12-04T01:21:29;99550.44;;;0.40;95.31
21760;BME280;11041;50.854;20.580;2022-12-04T01:23:56;99538.53;;;0.30;94.96
21760;BME280;11041;50.854;20.580;2022-12-04T01:26:24;99555.16;;;0.45;95.22
21760;BME280;11041;50.854;20.580;2022-12-04T01:28:51;99538.41;;;0.25;94.81
21760;BME280;11041;50.854;20.580;2022-12-04T01:31:19;99547.47;;;0.30;95.04
21760;BME280;11041;50.854;20.580;2022-12-04T01:33:48;99540.44;;;0.29;95.27
21760;BME280;11041;50.854;20.580;2022-12-04T01:36:20;99554.91;;;0.35;95.20
21760;BME280;11041;50.854;20.580;2022-12-04T01:38:47;99549.22;;;0.25;95.50
21760;BME280;11041;50.854;20.580;2022-12-04T01:41:16;99513.91;;;0.08;95.82
21760;BME280;11041;50.854;20.580;2022-12-04T01:43:44;99522.06;;;0.19;95.52
21760;BME280;11041;50.854;20.580;2022-12-04T01:46:11;99547.25;;;0.32;95.56
21760;BME280;11041;50.854;20.580;2022-12-04T01:48:44;99540.44;;;0.29;95.47
21760;BME280;11041;50.854;20.580;2022-12-04T01:51:26;99507.94;;;0.17;96.02
21760;BME280;11041;50.854;20.580;2022-12-04T01:54:00;99506.75;;;0.13;95.47
21760;BME280;11041;50.854;20.580;2022-12-04T01:56:37;99539.22;;;0.25;95.57
21760;BME280;11041;50.854;20.580;2022-12-04T01:59:08;99506.94;;;0.00;95.54
21760;BME280;11041;50.854;20.580;2022-12-04T02:01:43;99535.78;;;0.18;95.62
21760;BME280;11041;50.854;20.580;2022-12-04T02:04:11;99533.91;;;0.18;96.19
21760;BME280;11041;50.854;20.580;2022-12-04T02:06:38;99515.59;;;0.02;96.11
21760;BME280;11041;50.854;20.580;2022-12-04T02:09:04;99531.38;;;0.05;95.92
21760;BME280;11041;50.854;20.580;2022-12-04T02:11:37;99548.34;;;0.12;96.46
21760;BME280;11041;50.854;20.580;2022-12-04T02:14:29;99543.63;;;0.08;96.29
21760;BME280;11041;50.854;20.580;2022-12-04T02:17:21;99549.84;;;0.08;96.58
21760;BME280;11041;50.854;20.580;2022-12-04T02:20:38;99544.28;;;0.03;96.68
21760;BME280;11041;50.854;20.580;2022-12-04T02:29:59;99543.56;;;-0.04;97.16
21760;BME280;11041;50.854;20.580;2022-12-04T02:35:37;99539.19;;;-0.05;97.74
21760;BME280;11041;50.854;20.580;2022-12-04T02:38:34;99543.31;;;-0.03;97.55
21760;BME280;11041;50.854;20.580;2022-12-04T02:41:11;99542.94;;;-0.06;97.52
21760;BME280;11041;50.854;20.580;2022-12-04T02:43:47;99535.19;;;-0.03;97.61
21760;BME280;11041;50.854;20.580;2022-12-04T02:46:49;99533.63;;;-0.10;97.69
21760;BME280;11041;50.854;20.580;2022-12-04T02:49:29;99525.53;;;-0.10;97.82
21760;BME280;11041;50.854;20.580;2022-12-04T02:51:59;99534.25;;;-0.08;97.81
21760;BME280;11041;50.854;20.580;2022-12-04T02:54:37;99533.78;;;-0.05;97.92
21760;BME280;11041;50.854;20.580;2022-12-04T02:57:12;99540.09;;;-0.11;97.86
21760;BME280;11041;50.854;20.580;2022-12-04T02:59:44;99541.88;;;-0.05;98.25
21760;BME280;11041;50.854;20.580;2022-12-04T03:02:40;99528.63;;;-0.07;97.85
21760;BME280;11041;50.854;20.580;2022-12-04T03:05:15;99518.03;;;-0.08;97.88
21760;BME280;11041;50.854;20.580;2022-12-04T03:07:54;99539.25;;;0.07;97.65
21760;BME280;11041;50.854;20.580;2022-12-04T03:10:35;99513.84;;;-0.04;97.49
21760;BME280;11041;50.854;20.580;2022-12-04T03:13:11;99504.91;;;-0.05;97.75
21760;BME280;11041;50.854;20.580;2022-12-04T03:18:58;99529.28;;;-0.11;97.15
21760;BME280;11041;50.854;20.580;2022-12-04T03:21:40;99533.03;;;-0.12;97.81
21760;BME280;11041;50.854;20.580;2022-12-04T03:24:32;99549.44;;;0.05;97.48
21760;BME280;11041;50.854;20.580;2022-12-04T03:27:14;99527.94;;;-0.02;97.42
21760;BME280;11041;50.854;20.580;2022-12-04T03:30:06;99518.63;;;-0.06;97.37
21760;BME280;11041;50.854;20.580;2022-12-04T03:35:59;99511.34;;;-0.24;97.12
21760;BME280;11041;50.854;20.580;2022-12-04T03:41:56;99514.78;;;-0.17;97.60
21760;BME280;11041;50.854;20.580;2022-12-04T03:44:45;99521.06;;;-0.16;97.63
21760;BME280;11041;50.854;20.580;2022-12-04T03:47:31;99542.56;;;-0.10;97.60
21760;BME280;11041;50.854;20.580;2022-12-04T03:50:15;99509.13;;;-0.27;97.54
21760;BME280;11041;50.854;20.580;2022-12-04T03:53:11;99520.19;;;-0.17;98.05
21760;BME280;11041;50.854;20.580;2022-12-04T03:56:20;99524.34;;;-0.14;98.16
21760;BME280;11041;50.854;20.580;2022-12-04T03:58:59;99503.63;;;-0.20;97.82
21760;BME280;11041;50.854;20.580;2022-12-04T04:01:37;99522.97;;;-0.05;98.24
21760;BME280;11041;50.854;20.580;2022-12-04T04:04:14;99519.84;;;-0.02;97.92
21760;BME280;11041;50.854;20.580;2022-12-04T04:07:00;99529.38;;;0.01;97.37
21760;BME280;11041;50.854;20.580;2022-12-04T04:09:36;99523.06;;;-0.12;97.25
21760;BME280;11041;50.854;20.580;2022-12-04T04:12:13;99520.13;;;-0.10;97.59
21760;BME280;11041;50.854;20.580;2022-12-04T04:15:05;99528.84;;;-0.08;97.60
21760;BME280;11041;50.854;20.580;2022-12-04T04:17:53;99497.50;;;-0.28;97.80
21760;BME280;11041;50.854;20.580;2022-12-04T04:20:45;99511.66;;;-0.14;97.68
21760;BME280;11041;50.854;20.580;2022-12-04T04:23:39;99524.09;;;-0.13;97.58
21760;BME280;11041;50.854;20.580;2022-12-04T04:26:34;99508.56;;;-0.17;97.79
21760;BME280;11041;50.854;20.580;2022-12-04T04:29:02;99512.28;;;-0.12;97.81
21760;BME280;11041;50.854;20.580;2022-12-04T04:32:02;99523.81;;;-0.05;97.30
21760;BME280;11041;50.854;20.580;2022-12-04T04:35:18;99519.84;;;-0.02;97.55
21760;BME280;11041;50.854;20.580;2022-12-04T04:41:18;99505.88;;;0.01;97.48
21760;BME280;11041;50.854;20.580;2022-12-04T04:44:29;99487.09;;;-0.12;96.91
21760;BME280;11041;50.854;20.580;2022-12-04T04:47:00;99519.69;;;-0.07;97.20
21760;BME280;11041;50.854;20.580;2022-12-04T04:49:32;99504.25;;;-0.18;97.07
21760;BME280;11041;50.854;20.580;2022-12-04T04:52:01;99533.78;;;-0.05;97.41
21760;BME280;11041;50.854;20.580;2022-12-04T04:54:30;99536.66;;;0.00;97.39
21760;BME280;11041;50.854;20.580;2022-12-04T04:56:59;99513.97;;;-0.17;97.37
21760;BME280;11041;50.854;20.580;2022-12-04T04:59:25;99511.06;;;-0.16;97.17
21760;BME280;11041;50.854;20.580;2022-12-04T05:01:52;99540.38;;;-0.01;97.23
21760;BME280;11041;50.854;20.580;2022-12-04T05:04:18;99519.69;;;-0.07;97.13
21760;BME280;11041;50.854;20.580;2022-12-04T05:06:45;99508.03;;;-0.08;96.82
21760;BME280;11041;50.854;20.580;2022-12-04T05:09:12;99525.53;;;0.08;97.03
21760;BME280;11041;50.854;20.580;2022-12-04T05:11:39;99528.75;;;0.17;97.10
21760;BME280;11041;50.854;20.580;2022-12-04T05:14:05;99513.66;;;0.09;97.10
21760;BME280;11041;50.854;20.580;2022-12-04T05:16:34;99515.44;;;0.15;96.69
21760;BME280;11041;50.854;20.580;2022-12-04T05:19:01;99524.16;;;0.17;96.49
21760;BME280;11041;50.854;20.580;2022-12-04T05:21:46;99535.47;;;0.26;96.89
21760;BME280;11041;50.854;20.580;2022-12-04T05:24:12;99502.41;;;0.12;96.15
21760;BME280;11041;50.854;20.580;2022-12-04T05:26:39;99504.03;;;0.13;96.10
21760;BME280;11041;50.854;20.580;2022-12-04T05:29:06;99514.75;;;0.20;96.12
21760;BME280;11041;50.854;20.580;2022-12-04T05:31:32;99510.31;;;0.26;96.00
21760;BME280;11041;50.854;20.580;2022-12-04T05:33:58;99524.44;;;0.28;95.66
21760;BME280;11041;50.854;20.580;2022-12-04T05:36:25;99515.97;;;0.24;95.72
21760;BME280;11041;50.854;20.580;2022-12-04T05:38:52;99494.50;;;0.11;95.39
21760;BME280;11041;50.854;20.580;2022-12-04T05:41:18;99517.00;;;0.23;95.53
21760;BME280;11041;50.854;20.580;2022-12-04T05:43:45;99517.00;;;0.23;95.87
21760;BME280;11041;50.854;20.580;2022-12-04T05:46:11;99504.81;;;0.02;95.45
21760;BME280;11041;50.854;20.580;2022-12-04T05:48:38;99501.66;;;0.05;95.99
21760;BME280;11041;50.854;20.580;2022-12-04T05:51:09;99505.19;;;0.06;95.94
21760;BME280;11041;50.854;20.580;2022-12-04T05:53:37;99513.78;;;0.14;95.84
21760;BME280;11041;50.854;20.580;2022-12-04T05:56:05;99514.38;;;0.16;95.81
21760;BME280;11041;50.854;20.580;2022-12-04T05:58:37;99528.50;;;0.18;95.43
21760;BME280;11041;50.854;20.580;2022-12-04T06:01:17;99518.22;;;0.09;95.90
21760;BME280;11041;50.854;20.580;2022-12-04T06:03:44;99543.50;;;0.14;95.79
21760;BME280;11041;50.854;20.580;2022-12-04T06:06:22;99517.56;;;0.13;95.97
21760;BME280;11041;50.854;20.580;2022-12-04T06:08:53;99515.06;;;0.12;95.87
21760;BME280;11041;50.854;20.580;2022-12-04T06:11:27;99506.81;;;0.07;95.82
21760;BME280;11041;50.854;20.580;2022-12-04T06:13:55;99526.31;;;0.27;96.11
21760;BME280;11041;50.854;20.580;2022-12-04T06:16:30;99514.50;;;0.21;95.94
21760;BME280;11041;50.854;20.580;2022-12-04T06:19:02;99517.22;;;0.21;95.59
21760;BME280;11041;50.854;20.580;2022-12-04T06:21:32;99530.78;;;0.33;95.36
21760;BME280;11041;50.854;20.580;2022-12-04T06:23:58;99528.75;;;0.29;95.19
21760;BME280;11041;50.854;20.580;2022-12-04T06:26:26;99550.19;;;0.30;94.97
21760;BME280;11041;50.854;20.580;2022-12-04T06:28:54;99540.03;;;0.26;95.17
21760;BME280;11041;50.854;20.580;2022-12-04T06:31:23;99521.00;;;0.20;95.09
21760;BME280;11041;50.854;20.580;2022-12-04T06:33:53;99512.75;;;0.15;95.22
21760;BME280;11041;50.854;20.580;2022-12-04T06:36:22;99547.47;;;0.30;95.37
21760;BME280;11041;50.854;20.580;2022-12-04T06:38:53;99532.75;;;0.26;95.10
21760;BME280;11041;50.854;20.580;2022-12-04T06:41:22;99523.56;;;0.15;95.34
21760;BME280;11041;50.854;20.580;2022-12-04T06:43:50;99532.69;;;0.14;95.32
21760;BME280;11041;50.854;20.580;2022-12-04T06:46:30;99527.41;;;0.08;95.61
21760;BME280;11041;50.854;20.580;2022-12-04T06:48:59;99523.03;;;0.07;95.58
21760;BME280;11041;50.854;20.580;2022-12-04T06:51:34;99550.72;;;0.20;95.88
21760;BME280;11041;50.854;20.580;2022-12-04T06:54:02;99553.81;;;0.24;95.91
21760;BME280;11041;50.854;20.580;2022-12-04T06:56:31;99554.75;;;0.30;95.93
21760;BME280;11041;50.854;20.580;2022-12-04T06:59:00;99528.28;;;0.20;95.59
21760;BME280;11041;50.854;20.580;2022-12-04T07:01:31;99537.72;;;0.29;95.44
21760;BME280;11041;50.854;20.580;2022-12-04T07:03:59;99527.81;;;0.23;95.32
21760;BME280;11041;50.854;20.580;2022-12-04T07:06:33;99524.50;;;0.21;95.26
21760;BME280;11041;50.854;20.580;2022-12-04T07:09:10;99531.81;;;0.20;95.13
21760;BME280;11041;50.854;20.580;2022-12-04T07:11:39;99534.59;;;0.14;94.80
21760;BME280;11041;50.854;20.580;2022-12-04T07:14:06;99543.38;;;0.09;95.28
21760;BME280;11041;50.854;20.580;2022-12-04T07:16:33;99541.53;;;0.10;95.37
21760;BME280;11041;50.854;20.580;2022-12-04T07:19:00;99556.72;;;0.23;95.64
21760;BME280;11041;50.854;20.580;2022-12-04T07:21:29;99525.66;;;0.13;95.66
21760;BME280;11041;50.854;20.580;2022-12-04T07:23:59;99533.31;;;0.16;95.42
21760;BME280;11041;50.854;20.580;2022-12-04T07:26:28;99531.81;;;0.20;95.58
21760;BME280;11041;50.854;20.580;2022-12-04T07:28:56;99555.97;;;0.34;95.77
21760;BME280;11041;50.854;20.580;2022-12-04T07:31:27;99555.72;;;0.35;95.31
21760;BME280;11041;50.854;20.580;2022-12-04T07:33:54;99550.56;;;0.34;95.27
21760;BME280;11041;50.854;20.580;2022-12-04T07:36:23;99552.78;;;0.37;95.17
21760;BME280;11041;50.854;20.580;2022-12-04T07:38:50;99534.50;;;0.20;95.01
21760;BME280;11041;50.854;20.580;2022-12-04T07:41:18;99560.66;;;0.38;95.35
21760;BME280;11041;50.854;20.580;2022-12-04T07:43:45;99549.09;;;0.31;95.22
21760;BME280;11041;50.854;20.580;2022-12-04T07:46:18;99554.69;;;0.36;95.18
21760;BME280;11041;50.854;20.580;2022-12-04T07:48:45;99536.88;;;0.29;95.19
21760;BME280;11041;50.854;20.580;2022-12-04T07:51:19;99531.13;;;0.25;94.68
21760;BME280;11041;50.854;20.580;2022-12-04T07:53:47;99539.09;;;0.20;95.05
21760;BME280;11041;50.854;20.580;2022-12-04T07:56:15;99552.53;;;0.27;95.09
21760;BME280;11041;50.854;20.580;2022-12-04T07:58:43;99548.28;;;0.31;95.67
21760;BME280;11041;50.854;20.580;2022-12-04T08:01:19;99553.16;;;0.40;95.68
21760;BME280;11041;50.854;20.580;2022-12-04T08:03:49;99529.63;;;0.29;95.50
21760;BME280;11041;50.854;20.580;2022-12-04T08:06:19;99536.66;;;0.30;94.95
21760;BME280;11041;50.854;20.580;2022-12-04T08:08:48;99547.59;;;0.35;94.99
21760;BME280;11041;50.854;20.580;2022-12-04T08:11:20;99561.66;;;0.44;95.40
21760;BME280;11041;50.854;20.580;2022-12-04T08:13:58;99558.13;;;0.44;95.32
21760;BME280;11041;50.854;20.580;2022-12-04T08:16:28;99536.78;;;0.35;95.53
21760;BME280;11041;50.854;20.580;2022-12-04T08:18:56;99566.59;;;0.47;95.48
21760;BME280;11041;50.854;20.580;2022-12-04T08:21:30;99538.59;;;0.41;95.43
21760;BME280;11041;50.854;20.580;2022-12-04T08:23:59;99547.06;;;0.45;95.33
21760;BME280;11041;50.854;20.580;2022-12-04T08:26:28;99552.03;;;0.60;95.02
21760;BME280;11041;50.854;20.580;2022-12-04T08:28:56;99558.28;;;0.60;95.15
21760;BME280;11041;50.854;20.580;2022-12-04T08:31:26;99562.16;;;0.64;94.94
21760;BME280;11041;50.854;20.580;2022-12-04T08:33:56;99532.25;;;0.48;94.32
21760;BME280;11041;50.854;20.580;2022-12-04T08:36:25;99542.16;;;0.54;94.70
21760;BME280;11041;50.854;20.580;2022-12-04T08:38:52;99530.53;;;0.53;94.73
21760;BME280;11041;50.854;20.580;2022-12-04T08:41:22;99557.75;;;0.70;94.86
21760;BME280;11041;50.854;20.580;2022-12-04T08:43:50;99535.47;;;0.56;94.35
21760;BME280;11041;50.854;20.580;2022-12-04T08:46:19;99550.66;;;0.69;94.03
21760;BME280;11041;50.854;20.580;2022-12-04T08:48:46;99537.22;;;0.51;94.19
21760;BME280;11041;50.854;20.580;2022-12-04T08:51:22;99537.31;;;0.44;94.11
21760;BME280;11041;50.854;20.580;2022-12-04T08:54:02;99556.88;;;0.58;94.21
21760;BME280;11041;50.854;20.580;2022-12-04T08:56:30;99530.09;;;0.38;94.37
21760;BME280;11041;50.854;20.580;2022-12-04T08:58:59;99528.81;;;0.40;94.31
21760;BME280;11041;50.854;20.580;2022-12-04T09:01:27;99553.09;;;0.59;94.72
21760;BME280;11041;50.854;20.580;2022-12-04T09:03:54;99532.16;;;0.54;94.46
21760;BME280;11041;50.854;20.580;2022-12-04T09:06:22;99542.06;;;0.60;94.50
21760;BME280;11041;50.854;20.580;2022-12-04T09:08:53;99534.53;;;0.62;94.25
21760;BME280;11041;50.854;20.580;2022-12-04T09:11:22;99532.53;;;0.58;94.51
21760;BME280;11041;50.854;20.580;2022-12-04T09:13:49;99533.50;;;0.63;94.41
21760;BME280;11041;50.854;20.580;2022-12-04T09:16:23;99533.50;;;0.63;94.07
21760;BME280;11041;50.854;20.580;2022-12-04T09:18:50;99530.41;;;0.60;94.20
21760;BME280;11041;50.854;20.580;2022-12-04T09:21:19;99522.31;;;0.72;94.46
21760;BME280;11041;50.854;20.580;2022-12-04T09:23:46;99511.97;;;0.69;94.21
21760;BME280;11041;50.854;20.580;2022-12-04T09:26:29;99538.84;;;0.82;93.48
21760;BME280;11041;50.854;20.580;2022-12-04T09:28:59;99540.94;;;0.80;93.67
21760;BME280;11041;50.854;20.580;2022-12-04T09:31:27;99513.31;;;0.90;94.49
21760;BME280;11041;50.854;20.580;2022-12-04T09:33:54;99527.81;;;1.07;93.59
21760;BME280;11041;50.854;20.580;2022-12-04T09:36:23;99535.09;;;1.06;92.34
21760;BME280;11041;50.854;20.580;2022-12-04T09:38:52;99510.84;;;0.88;92.31
21760;BME280;11041;50.854;20.580;2022-12-04T09:44:02;99509.31;;;0.92;92.97
21760;BME280;11041;50.854;20.580;2022-12-04T09:46:39;99507.22;;;0.94;92.65
21760;BME280;11041;50.854;20.580;2022-12-04T09:49:16;99519.69;;;1.07;93.24
21760;BME280;11041;50.854;20.580;2022-12-04T09:51:46;99509.44;;;1.09;93.10
21760;BME280;11041;50.854;20.580;2022-12-04T09:54:17;99519.91;;;1.17;92.74
21760;BME280;11041;50.854;20.580;2022-12-04T09:56:58;99512.75;;;0.99;91.59
21760;BME280;11041;50.854;20.580;2022-12-04T09:59:29;99495.78;;;0.92;92.41
21760;BME280;11041;50.854;20.580;2022-12-04T10:05:00;99524.03;;;1.08;92.83
21760;BME280;11041;50.854;20.580;2022-12-04T10:08:18;99520.97;;;1.16;92.53
21760;BME280;11041;50.854;20.580;2022-12-04T10:19:59;99527.94;;;1.24;91.90
21760;BME280;11041;50.854;20.580;2022-12-04T10:23:25;99515.81;;;1.26;92.70
21760;BME280;11041;50.854;20.580;2022-12-04T10:25:35;99528.16;;;1.34;92.31
21760;BME280;11041;50.854;20.580;2022-12-04T10:28:27;99528.84;;;1.41;92.29
21760;BME280;11041;50.854;20.580;2022-12-04T10:31:01;99510.97;;;1.40;91.79
21760;BME280;11041;50.854;20.580;2022-12-04T10:33:40;99488.72;;;1.38;91.80
21760;BME280;11041;50.854;20.580;2022-12-04T10:36:19;99491.06;;;1.46;91.36
21760;BME280;11041;50.854;20.580;2022-12-04T10:38:55;99474.00;;;1.34;91.10
21760;BME280;11041;50.854;20.580;2022-12-04T10:41:53;99480.50;;;1.33;90.96
21760;BME280;11041;50.854;20.580;2022-12-04T10:44:23;99470.00;;;1.25;91.00
21760;BME280;11041;50.854;20.580;2022-12-04T10:46:55;99462.13;;;1.23;91.58
21760;BME280;11041;50.854;20.580;2022-12-04T10:49:28;99463.53;;;1.14;91.63
21760;BME280;11041;50.854;20.580;2022-12-04T10:51:57;99478.13;;;1.25;92.13
21760;BME280;11041;50.854;20.580;2022-12-04T10:57:08;99484.25;;;1.32;91.59
21760;BME280;11041;50.854;20.580;2022-12-04T11:00:18;99482.22;;;1.39;91.38
21760;BME280;11041;50.854;20.580;2022-12-04T11:02:50;99480.22;;;1.35;91.02
21760;BME280;11041;50.854;20.580;2022-12-04T11:05:52;99463.53;;;1.38;91.11
21760;BME280;11041;50.854;20.580;2022-12-04T11:08:48;99473.16;;;1.45;91.65
21760;BME280;11041;50.854;20.580;2022-12-04T11:11:30;99451.88;;;1.37;90.86
21760;BME280;11041;50.854;20.580;2022-12-04T11:14:20;99447.50;;;1.36;90.59
21760;BME280;11041;50.854;20.580;2022-12-04T11:16:59;99456.03;;;1.16;90.94
21760;BME280;11041;50.854;20.580;2022-12-04T11:19:31;99468.84;;;1.21;91.50
21760;BME280;11041;50.854;20.580;2022-12-04T11:22:24;99483.78;;;1.23;91.36
21760;BME280;11041;50.854;20.580;2022-12-04T11:24:55;99473.91;;;1.17;91.63
21760;BME280;11041;50.854;20.580;2022-12-04T11:27:29;99453.19;;;1.11;91.83
21760;BME280;11041;50.854;20.580;2022-12-04T11:30:09;99451.41;;;1.17;91.89
21760;BME280;11041;50.854;20.580;2022-12-04T11:32:37;99446.00;;;1.17;92.12
21760;BME280;11041;50.854;20.580;2022-12-04T11:35:24;99437.78;;;1.12;91.80
21760;BME280;11041;50.854;20.580;2022-12-04T11:38:16;99450.13;;;1.19;91.90
21760;BME280;11041;50.854;20.580;2022-12-04T11:40:57;99444.47;;;1.21;91.79
21760;BME280;11041;50.854;20.580;2022-12-04T11:43:29;99418.00;;;1.11;91.74
21760;BME280;11041;50.854;20.580;2022-12-04T11:46:02;99418.81;;;1.12;91.60
21760;BME280;11041;50.854;20.580;2022-12-04T11:48:43;99437.19;;;1.21;91.57
21760;BME280;11041;50.854;20.580;2022-12-04T12:00:21;99443.78;;;1.14;91.66
21760;BME280;11041;50.854;20.580;2022-12-04T12:06:04;99446.72;;;0.89;91.77
21760;BME280;11041;50.854;20.580;2022-12-04T12:11:44;99433.19;;;0.77;92.20
21760;BME280;11041;50.854;20.580;2022-12-04T12:17:32;99438.25;;;0.85;91.44
21760;BME280;11041;50.854;20.580;2022-12-04T12:26:11;99436.72;;;0.66;92.71
21760;BME280;11041;50.854;20.580;2022-12-04T12:32:09;99443.16;;;0.64;92.81
21760;BME280;11041;50.854;20.580;2022-12-04T12:34:44;99437.63;;;0.59;92.85
21760;BME280;11041;50.854;20.580;2022-12-04T12:37:47;99461.06;;;0.77;93.54
21760;BME280;11041;50.854;20.580;2022-12-04T12:41:33;99457.19;;;0.73;92.99
21760;BME280;11041;50.854;20.580;2022-12-04T12:43:35;99449.66;;;0.63;93.29
21760;BME280;11041;50.854;20.580;2022-12-04T12:46:34;99453.66;;;0.73;93.25
21760;BME280;11041;50.854;20.580;2022-12-04T12:49:31;99452.97;;;0.77;93.02
21760;BME280;11041;50.854;20.580;2022-12-04T12:55:14;99434.34;;;0.69;93.07
21760;BME280;11041;50.854;20.580;2022-12-04T12:57:52;99434.84;;;0.78;92.75
21760;BME280;11041;50.854;20.580;2022-12-04T13:00:22;99444.97;;;0.82;92.49
21760;BME280;11041;50.854;20.580;2022-12-04T13:03:10;99464.25;;;0.98;92.48
21760;BME280;11041;50.854;20.580;2022-12-04T13:05:46;99442.97;;;0.90;92.18
21760;BME280;11041;50.854;20.580;2022-12-04T13:08:35;99442.25;;;0.82;92.18
21760;BME280;11041;50.854;20.580;2022-12-04T13:13:38;99438.97;;;0.80;92.34
21760;BME280;11041;50.854;20.580;2022-12-04T13:16:22;99455.41;;;0.91;92.35
21760;BME280;11041;50.854;20.580;2022-12-04T13:19:23;99449.19;;;0.90;92.56
21760;BME280;11041;50.854;20.580;2022-12-04T13:28:01;99457.78;;;0.99;91.88
21760;BME280;11041;50.854;20.580;2022-12-04T13:42:05;99465.41;;;0.67;92.44
21760;BME280;11041;50.854;20.580;2022-12-04T13:44:56;99459.28;;;0.59;92.65
21760;BME280;11041;50.854;20.580;2022-12-04T13:47:36;99432.56;;;0.39;93.01
21760;BME280;11041;50.854;20.580;2022-12-04T13:50:36;99468.31;;;0.53;93.18
21760;BME280;11041;50.854;20.580;2022-12-04T13:53:04;99458.28;;;0.42;93.58
21760;BME280;11041;50.854;20.580;2022-12-04T13:55:37;99484.66;;;0.47;93.85
21760;BME280;11041;50.854;20.580;2022-12-04T14:00:42;99476.88;;;0.50;94.13
21760;BME280;11041;50.854;20.580;2022-12-04T14:03:50;99486.91;;;0.61;93.95
21760;BME280;11041;50.854;20.580;2022-12-04T14:06:33;99475.88;;;0.63;93.85
21760;BME280;11041;50.854;20.580;2022-12-04T14:09:06;99477.50;;;0.64;93.58
21760;BME280;11041;50.854;20.580;2022-12-04T14:11:47;99492.34;;;0.73;93.65
21760;BME280;11041;50.854;20.580;2022-12-04T14:14:30;99465.97;;;0.57;92.54
21760;BME280;11041;50.854;20.580;2022-12-04T14:17:00;99452.09;;;0.53;93.35
21760;BME280;11041;50.854;20.580;2022-12-04T14:19:39;99474.47;;;0.72;93.42
21760;BME280;11041;50.854;20.580;2022-12-04T14:30:20;99481.75;;;0.72;92.99
21760;BME280;11041;50.854;20.580;2022-12-04T14:32:52;99460.00;;;0.67;92.85
21760;BME280;11041;50.854;20.580;2022-12-04T14:35:23;99473.97;;;0.63;93.11
21760;BME280;11041;50.854;20.580;2022-12-04T14:37:56;99445.47;;;0.37;93.44
21760;BME280;11041;50.854;20.580;2022-12-04T14:40:40;99449.97;;;0.44;93.14
21760;BME280;11041;50.854;20.580;2022-12-04T14:43:29;99462.31;;;0.51;93.15
21760;BME280;11041;50.854;20.580;2022-12-04T14:46:12;99476.69;;;0.63;92.77
21760;BME280;11041;50.854;20.580;2022-12-04T14:51:54;99464.06;;;0.46;93.65
21760;BME280;11041;50.854;20.580;2022-12-04T15:00:24;99475.25;;;0.49;93.67
21760;BME280;11041;50.854;20.580;2022-12-04T15:02:58;99465.22;;;0.38;93.88
21760;BME280;11041;50.854;20.580;2022-12-04T15:05:30;99475.13;;;0.44;93.95
21760;BME280;11041;50.854;20.580;2022-12-04T15:08:04;99456.94;;;0.21;93.82
21760;BME280;11041;50.854;20.580;2022-12-04T15:10:34;99460.72;;;0.20;94.10
21760;BME280;11041;50.854;20.580;2022-12-04T15:13:34;99467.88;;;0.26;94.07
21760;BME280;11041;50.854;20.580;2022-12-04T15:16:21;99481.44;;;0.38;94.32
21760;BME280;11041;50.854;20.580;2022-12-04T15:18:59;99467.56;;;0.34;94.16
21760;BME280;11041;50.854;20.580;2022-12-04T15:21:38;99486.97;;;0.43;94.12
21760;BME280;11041;50.854;20.580;2022-12-04T15:24:18;99488.75;;;0.49;93.77
21760;BME280;11041;50.854;20.580;2022-12-04T15:26:51;99460.38;;;0.28;93.60
21760;BME280;11041;50.854;20.580;2022-12-04T15:29:24;99485.44;;;0.35;93.73
21760;BME280;11041;50.854;20.580;2022-12-04T15:32:05;99458.59;;;0.22;94.15